createdAt,value
2022-12-31T00:00:35.355Z,11.52
2022-12-31T00:01:35.181Z,11.55
2022-12-31T00:02:35.342Z,11.60
2022-12-31T00:03:35.181Z,11.65
2022-12-31T00:04:35.118Z,11.71
2022-12-31T00:05:35.140Z,11.76
2022-12-31T00:06:35.106Z,11.79
2022-12-31T00:08:19.052Z,13.02
2022-12-31T00:09:20.052Z,12.59
2022-12-31T00:10:20.075Z,12.30
2022-12-31T00:11:20.019Z,12.14
2022-12-31T00:12:19.999Z,12.05
2022-12-31T00:13:20.028Z,11.99
2022-12-31T00:14:20.001Z,11.96
2022-12-31T00:15:19.982Z,11.95
2022-12-31T00:16:20.017Z,11.94
2022-12-31T00:17:19.962Z,11.94
2022-12-31T00:18:19.930Z,11.94
2022-12-31T00:19:19.908Z,11.95
2022-12-31T00:20:19.906Z,11.96
2022-12-31T00:21:19.912Z,11.98
2022-12-31T00:22:19.894Z,12.01
2022-12-31T00:23:19.877Z,12.03
2022-12-31T00:24:19.855Z,12.05
2022-12-31T00:25:19.861Z,12.05
2022-12-31T00:26:19.809Z,12.05
2022-12-31T00:27:19.818Z,12.04
2022-12-31T00:28:19.818Z,12.03
2022-12-31T00:29:19.790Z,12.01
2022-12-31T00:30:19.777Z,12.00
2022-12-31T00:31:19.852Z,12.00
2022-12-31T00:32:19.740Z,12.01
2022-12-31T00:33:19.737Z,12.02
2022-12-31T00:34:19.713Z,12.04
2022-12-31T00:35:19.699Z,12.06
2022-12-31T00:36:19.932Z,12.09
2022-12-31T00:37:19.660Z,12.11
2022-12-31T00:38:19.682Z,12.13
2022-12-31T00:39:19.653Z,12.14
2022-12-31T00:40:19.630Z,12.15
2022-12-31T00:41:19.628Z,12.16
2022-12-31T00:42:19.635Z,12.18
2022-12-31T00:43:19.603Z,12.20
2022-12-31T00:44:19.684Z,12.23
2022-12-31T00:45:19.569Z,12.25
2022-12-31T00:46:19.597Z,12.28
2022-12-31T00:47:19.554Z,12.30
2022-12-31T00:48:19.531Z,12.32
2022-12-31T00:49:19.513Z,12.33
2022-12-31T00:50:19.520Z,12.35
2022-12-31T00:51:19.509Z,12.36
2022-12-31T00:52:19.466Z,12.38
2022-12-31T00:53:19.452Z,12.39
2022-12-31T00:54:19.457Z,12.39
2022-12-31T00:55:19.446Z,12.39
2022-12-31T00:56:19.457Z,12.40
2022-12-31T00:57:19.407Z,12.41
2022-12-31T00:58:19.387Z,12.43
2022-12-31T00:59:19.373Z,12.44
2022-12-31T01:00:19.389Z,12.45
2022-12-31T01:01:19.599Z,12.44
2022-12-31T01:02:19.549Z,12.43
2022-12-31T01:03:19.370Z,12.41
2022-12-31T01:04:19.341Z,12.42
2022-12-31T01:05:19.320Z,12.42
2022-12-31T01:06:19.304Z,12.42
2022-12-31T01:07:19.313Z,12.40
2022-12-31T01:08:19.284Z,12.39
2022-12-31T01:09:19.265Z,12.37
2022-12-31T01:10:19.232Z,12.38
2022-12-31T01:11:19.339Z,12.39
2022-12-31T01:12:19.274Z,12.40
2022-12-31T01:13:19.242Z,12.41
2022-12-31T01:14:19.185Z,12.41
2022-12-31T01:15:19.188Z,12.41
2022-12-31T01:16:19.196Z,12.42
2022-12-31T01:17:19.151Z,12.44
2022-12-31T01:18:19.165Z,12.45
2022-12-31T01:19:19.144Z,12.46
2022-12-31T01:20:19.129Z,12.47
2022-12-31T01:21:19.104Z,12.48
2022-12-31T01:22:19.097Z,12.50
2022-12-31T01:23:19.078Z,12.52
2022-12-31T01:24:19.076Z,12.54
2022-12-31T01:25:19.049Z,12.55
2022-12-31T01:26:19.031Z,12.56
2022-12-31T01:27:19.039Z,12.56
2022-12-31T01:28:19.042Z,12.56
2022-12-31T01:29:19.047Z,12.54
2022-12-31T01:30:18.983Z,12.53
2022-12-31T01:31:19.041Z,12.51
2022-12-31T01:32:18.959Z,12.50
2022-12-31T01:33:18.972Z,12.49
2022-12-31T01:34:18.937Z,12.48
2022-12-31T01:35:18.952Z,12.48
2022-12-31T01:36:25.065Z,12.48
2022-12-31T01:37:18.934Z,12.49
2022-12-31T01:38:18.891Z,12.49
2022-12-31T01:39:18.914Z,12.48
2022-12-31T01:40:18.860Z,12.48
2022-12-31T01:41:18.858Z,12.48
2022-12-31T01:42:18.831Z,12.49
2022-12-31T01:43:18.828Z,12.50
2022-12-31T01:44:18.814Z,12.49
2022-12-31T01:45:18.779Z,12.49
2022-12-31T01:46:18.819Z,12.48
2022-12-31T01:47:18.782Z,12.48
2022-12-31T01:48:18.754Z,12.48
2022-12-31T01:49:18.756Z,12.48
2022-12-31T01:50:18.747Z,12.48
2022-12-31T01:51:18.702Z,12.49
2022-12-31T01:52:18.724Z,12.51
2022-12-31T01:53:18.689Z,12.52
2022-12-31T01:54:18.728Z,12.52
2022-12-31T01:55:18.657Z,12.52
2022-12-31T01:56:18.643Z,12.53
2022-12-31T01:57:18.640Z,12.54
2022-12-31T01:58:18.689Z,12.54
2022-12-31T01:59:18.608Z,12.55
2022-12-31T02:00:18.654Z,12.57
2022-12-31T02:01:18.709Z,12.59
2022-12-31T02:02:18.736Z,12.60
2022-12-31T02:03:18.592Z,12.61
2022-12-31T02:04:18.575Z,12.61
2022-12-31T02:05:18.546Z,12.61
2022-12-31T02:06:18.527Z,12.62
2022-12-31T02:07:18.515Z,12.63
2022-12-31T02:08:18.489Z,12.64
2022-12-31T02:09:18.499Z,12.65
2022-12-31T02:10:18.479Z,12.66
2022-12-31T02:11:18.449Z,12.66
2022-12-31T02:12:18.465Z,12.67
2022-12-31T02:13:18.433Z,12.70
2022-12-31T02:14:18.430Z,12.73
2022-12-31T02:15:18.432Z,12.74
2022-12-31T02:16:18.437Z,12.75
2022-12-31T02:17:18.378Z,12.73
2022-12-31T02:18:18.390Z,12.71
2022-12-31T02:19:18.382Z,12.69
2022-12-31T02:20:18.345Z,12.66
2022-12-31T02:21:18.392Z,12.65
2022-12-31T02:22:18.321Z,12.64
2022-12-31T02:23:18.333Z,12.64
2022-12-31T02:24:18.287Z,12.64
2022-12-31T02:25:18.272Z,12.65
2022-12-31T02:26:18.290Z,12.66
2022-12-31T02:27:18.241Z,12.67
2022-12-31T02:28:18.262Z,12.68
2022-12-31T02:29:18.232Z,12.67
2022-12-31T02:30:18.210Z,12.65
2022-12-31T02:31:18.230Z,12.63
2022-12-31T02:32:18.183Z,12.62
2022-12-31T02:33:18.178Z,12.60
2022-12-31T02:34:18.179Z,12.60
2022-12-31T02:35:18.177Z,12.60
2022-12-31T02:36:18.137Z,12.61
2022-12-31T02:37:18.124Z,12.62
2022-12-31T02:38:18.140Z,12.62
2022-12-31T02:39:18.087Z,12.63
2022-12-31T02:40:18.123Z,12.63
2022-12-31T02:41:18.065Z,12.64
2022-12-31T02:42:18.052Z,12.63
2022-12-31T02:43:18.044Z,12.63
2022-12-31T02:44:18.062Z,12.62
2022-12-31T02:45:18.029Z,12.61
2022-12-31T02:46:18.032Z,12.62
2022-12-31T02:47:17.987Z,12.62
2022-12-31T02:48:17.990Z,12.63
2022-12-31T02:49:17.988Z,12.63
2022-12-31T02:50:17.962Z,12.64
2022-12-31T02:51:17.939Z,12.64
2022-12-31T02:52:17.931Z,12.65
2022-12-31T02:53:17.912Z,12.66
2022-12-31T02:54:17.943Z,12.67
2022-12-31T02:55:17.876Z,12.68
2022-12-31T02:56:17.894Z,12.69
2022-12-31T02:57:17.869Z,12.69
2022-12-31T02:58:17.863Z,12.69
2022-12-31T02:59:17.860Z,12.69
2022-12-31T03:00:17.824Z,12.68
2022-12-31T03:01:17.920Z,12.67
2022-12-31T03:02:17.882Z,12.67
2022-12-31T03:03:17.783Z,12.67
2022-12-31T03:04:17.779Z,12.68
2022-12-31T03:05:17.786Z,12.72
2022-12-31T03:06:17.739Z,12.75
2022-12-31T03:07:17.730Z,12.77
2022-12-31T03:08:17.733Z,12.78
2022-12-31T03:09:17.702Z,12.79
2022-12-31T03:10:17.689Z,12.80
2022-12-31T03:11:17.667Z,12.81
2022-12-31T03:12:17.681Z,12.82
2022-12-31T03:13:17.643Z,12.84
2022-12-31T03:14:17.641Z,12.86
2022-12-31T03:15:17.651Z,12.87
2022-12-31T03:16:17.701Z,12.89
2022-12-31T03:17:17.601Z,12.89
2022-12-31T03:18:17.585Z,12.89
2022-12-31T03:19:17.566Z,12.89
2022-12-31T03:20:17.555Z,12.90
2022-12-31T03:21:17.543Z,12.92
2022-12-31T03:22:17.540Z,12.94
2022-12-31T03:23:17.536Z,12.96
2022-12-31T03:24:17.503Z,12.99
2022-12-31T03:25:17.483Z,13.02
2022-12-31T03:26:17.483Z,13.06
2022-12-31T03:27:17.464Z,13.09
2022-12-31T03:28:17.485Z,13.10
2022-12-31T03:29:17.438Z,13.12
2022-12-31T03:30:17.422Z,13.12
2022-12-31T03:31:17.462Z,13.13
2022-12-31T03:32:17.398Z,13.13
2022-12-31T03:33:17.388Z,13.14
2022-12-31T03:34:17.375Z,13.15
2022-12-31T03:35:17.358Z,13.17
2022-12-31T03:36:17.344Z,13.18
2022-12-31T03:37:17.328Z,13.20
2022-12-31T03:38:17.340Z,13.21
2022-12-31T03:39:17.332Z,13.24
2022-12-31T03:40:17.303Z,13.26
2022-12-31T03:41:17.294Z,13.28
2022-12-31T03:42:17.266Z,13.29
2022-12-31T03:43:17.273Z,13.29
2022-12-31T03:44:17.248Z,13.29
2022-12-31T03:45:17.250Z,13.28
2022-12-31T03:46:17.289Z,13.26
2022-12-31T03:47:17.197Z,13.23
2022-12-31T03:48:17.208Z,13.22
2022-12-31T03:49:17.190Z,13.20
2022-12-31T03:50:17.192Z,13.18
2022-12-31T03:51:17.160Z,13.16
2022-12-31T03:52:17.155Z,13.14
2022-12-31T03:53:17.141Z,13.13
2022-12-31T03:54:17.124Z,13.12
2022-12-31T03:55:17.108Z,13.12
2022-12-31T03:56:17.107Z,13.13
2022-12-31T03:57:17.088Z,13.15
2022-12-31T03:58:17.115Z,13.16
2022-12-31T03:59:17.080Z,13.17
2022-12-31T04:00:17.043Z,13.18
2022-12-31T04:01:17.100Z,13.19
2022-12-31T04:02:17.132Z,13.21
2022-12-31T04:03:17.057Z,13.23
2022-12-31T04:04:16.997Z,13.24
2022-12-31T04:05:16.990Z,13.24
2022-12-31T04:06:17.001Z,13.25
2022-12-31T04:07:16.948Z,13.26
2022-12-31T04:08:16.938Z,13.26
2022-12-31T04:09:16.927Z,13.26
2022-12-31T04:10:16.933Z,13.26
2022-12-31T04:11:20.826Z,13.27
2022-12-31T04:12:16.888Z,13.28
2022-12-31T04:13:16.884Z,13.28
2022-12-31T04:14:16.864Z,13.29
2022-12-31T04:15:16.871Z,13.29
2022-12-31T04:16:16.888Z,13.29
2022-12-31T04:17:16.827Z,13.31
2022-12-31T04:18:16.826Z,13.33
2022-12-31T04:19:16.809Z,13.36
2022-12-31T04:20:16.799Z,13.39
2022-12-31T04:21:16.782Z,13.42
2022-12-31T04:22:16.763Z,13.44
2022-12-31T04:23:16.744Z,13.45
2022-12-31T04:24:16.736Z,13.46
2022-12-31T04:25:16.726Z,13.46
2022-12-31T04:26:16.708Z,13.47
2022-12-31T04:27:16.710Z,13.47
2022-12-31T04:28:16.699Z,13.47
2022-12-31T04:29:16.673Z,13.47
2022-12-31T04:30:16.644Z,13.47
2022-12-31T04:31:16.626Z,13.46
2022-12-31T04:32:16.652Z,13.46
2022-12-31T04:33:16.607Z,13.46
2022-12-31T04:34:16.614Z,13.48
2022-12-31T04:35:16.578Z,13.51
2022-12-31T04:36:16.559Z,13.54
2022-12-31T04:37:16.549Z,13.57
2022-12-31T04:38:16.576Z,13.60
2022-12-31T04:39:16.514Z,13.62
2022-12-31T04:40:16.523Z,13.63
2022-12-31T04:41:16.488Z,13.63
2022-12-31T04:42:16.477Z,13.63
2022-12-31T04:43:16.487Z,13.62
2022-12-31T04:44:16.455Z,13.61
2022-12-31T04:45:16.459Z,13.61
2022-12-31T04:46:16.497Z,13.60
2022-12-31T04:47:23.271Z,13.60
2022-12-31T04:48:16.420Z,13.60
2022-12-31T04:49:16.373Z,13.60
2022-12-31T04:50:16.395Z,13.60
2022-12-31T04:51:16.347Z,13.60
2022-12-31T04:52:16.341Z,13.61
2022-12-31T04:53:16.338Z,13.61
2022-12-31T04:54:16.305Z,13.62
2022-12-31T04:55:16.313Z,13.62
2022-12-31T04:56:16.295Z,13.63
2022-12-31T04:57:16.292Z,13.63
2022-12-31T04:58:16.276Z,13.65
2022-12-31T04:59:16.264Z,13.68
2022-12-31T05:00:16.251Z,13.69
2022-12-31T05:01:16.454Z,13.71
2022-12-31T05:02:16.378Z,13.72
2022-12-31T05:03:16.219Z,13.72
2022-12-31T05:04:16.188Z,13.73
2022-12-31T05:05:16.173Z,13.73
2022-12-31T05:06:16.146Z,13.74
2022-12-31T05:07:16.174Z,13.76
2022-12-31T05:08:16.119Z,13.78
2022-12-31T05:09:16.108Z,13.82
2022-12-31T05:10:16.105Z,13.86
2022-12-31T05:11:16.108Z,13.90
2022-12-31T05:12:16.072Z,13.93
2022-12-31T05:13:16.082Z,13.95
2022-12-31T05:14:16.071Z,13.95
2022-12-31T05:15:16.040Z,13.95
2022-12-31T05:16:16.062Z,13.94
2022-12-31T05:17:15.999Z,13.92
2022-12-31T05:18:16.035Z,13.91
2022-12-31T05:19:16.004Z,13.90
2022-12-31T05:20:15.968Z,13.89
2022-12-31T05:21:15.946Z,13.87
2022-12-31T05:22:15.937Z,13.86
2022-12-31T05:23:15.925Z,13.85
2022-12-31T05:24:15.916Z,13.84
2022-12-31T05:25:15.892Z,13.84
2022-12-31T05:26:15.878Z,13.83
2022-12-31T05:27:15.880Z,13.82
2022-12-31T05:28:15.856Z,13.81
2022-12-31T05:29:15.836Z,13.81
2022-12-31T05:30:15.833Z,13.82
2022-12-31T05:31:15.856Z,13.82
2022-12-31T05:32:15.827Z,13.82
2022-12-31T05:33:15.798Z,13.81
2022-12-31T05:34:15.779Z,13.80
2022-12-31T05:35:15.765Z,13.79
2022-12-31T05:36:15.755Z,13.78
2022-12-31T05:37:15.772Z,13.76
2022-12-31T05:38:15.733Z,13.74
2022-12-31T05:39:15.706Z,13.72
2022-12-31T05:40:15.696Z,13.71
2022-12-31T05:41:15.675Z,13.70
2022-12-31T05:42:15.692Z,13.69
2022-12-31T05:43:15.676Z,13.68
2022-12-31T05:44:15.647Z,13.67
2022-12-31T05:45:15.714Z,13.66
2022-12-31T05:46:15.638Z,13.65
2022-12-31T05:47:15.623Z,13.64
2022-12-31T05:48:15.588Z,13.63
2022-12-31T05:49:15.583Z,13.62
2022-12-31T05:50:15.563Z,13.61
2022-12-31T05:51:15.549Z,13.60
2022-12-31T05:52:15.532Z,13.59
2022-12-31T05:53:15.518Z,13.58
2022-12-31T05:54:15.520Z,13.57
2022-12-31T05:55:15.513Z,13.56
2022-12-31T05:56:15.488Z,13.56
2022-12-31T05:57:15.472Z,13.56
2022-12-31T05:58:15.445Z,13.56
2022-12-31T05:59:15.432Z,13.56
2022-12-31T06:00:15.419Z,13.55
2022-12-31T06:01:15.463Z,13.54
2022-12-31T06:02:15.457Z,13.52
2022-12-31T06:03:15.558Z,13.50
2022-12-31T06:04:15.381Z,13.49
2022-12-31T06:05:15.352Z,13.46
2022-12-31T06:06:15.339Z,13.43
2022-12-31T06:07:15.329Z,13.40
2022-12-31T06:08:15.307Z,13.37
2022-12-31T06:09:15.307Z,13.35
2022-12-31T06:10:15.286Z,13.33
2022-12-31T06:11:15.279Z,13.31
2022-12-31T06:12:15.261Z,13.30
2022-12-31T06:13:15.261Z,13.29
2022-12-31T06:14:15.249Z,13.29
2022-12-31T06:15:15.223Z,13.28
2022-12-31T06:16:15.382Z,13.28
2022-12-31T06:17:15.198Z,13.27
2022-12-31T06:18:15.222Z,13.26
2022-12-31T06:19:15.178Z,13.26
2022-12-31T06:20:15.188Z,13.25
2022-12-31T06:21:15.159Z,13.24
2022-12-31T06:22:15.150Z,13.23
2022-12-31T06:23:15.119Z,13.22
2022-12-31T06:24:15.099Z,13.21
2022-12-31T06:25:15.095Z,13.19
2022-12-31T06:26:15.080Z,13.18
2022-12-31T06:27:15.061Z,13.17
2022-12-31T06:28:20.062Z,13.16
2022-12-31T06:29:15.037Z,13.15
2022-12-31T06:30:15.020Z,13.14
2022-12-31T06:31:15.058Z,13.14
2022-12-31T06:32:14.994Z,13.13
2022-12-31T06:33:14.986Z,13.12
2022-12-31T06:34:14.961Z,13.12
2022-12-31T06:35:14.949Z,13.12
2022-12-31T06:36:14.936Z,13.12
2022-12-31T06:37:14.918Z,13.11
2022-12-31T06:38:14.909Z,13.11
2022-12-31T06:39:14.926Z,13.11
2022-12-31T06:40:14.915Z,13.11
2022-12-31T06:41:14.889Z,13.11
2022-12-31T06:42:14.867Z,13.11
2022-12-31T06:43:14.840Z,13.10
2022-12-31T06:44:14.850Z,13.10
2022-12-31T06:45:14.818Z,13.09
2022-12-31T06:46:14.839Z,13.09
2022-12-31T06:47:14.797Z,13.08
2022-12-31T06:48:14.790Z,13.08
2022-12-31T06:49:14.759Z,13.07
2022-12-31T06:50:14.736Z,13.07
2022-12-31T06:51:17.312Z,13.07
2022-12-31T06:52:14.720Z,13.07
2022-12-31T06:53:14.710Z,13.07
2022-12-31T06:54:14.691Z,13.08
2022-12-31T06:55:14.698Z,13.08
2022-12-31T06:56:14.664Z,13.09
2022-12-31T06:57:14.643Z,13.10
2022-12-31T06:58:14.639Z,13.10
2022-12-31T06:59:14.622Z,13.10
2022-12-31T07:00:14.635Z,13.09
2022-12-31T07:01:14.630Z,13.09
2022-12-31T07:02:14.687Z,13.08
2022-12-31T07:03:14.609Z,13.08
2022-12-31T07:04:14.548Z,13.07
2022-12-31T07:05:14.560Z,13.07
2022-12-31T07:06:14.517Z,13.06
2022-12-31T07:07:14.509Z,13.05
2022-12-31T07:08:14.502Z,13.04
2022-12-31T07:09:14.487Z,13.03
2022-12-31T07:10:14.460Z,13.02
2022-12-31T07:11:14.452Z,13.01
2022-12-31T07:12:14.446Z,13.00
2022-12-31T07:13:14.438Z,12.99
2022-12-31T07:14:14.409Z,12.98
2022-12-31T07:15:14.402Z,12.97
2022-12-31T07:16:14.395Z,12.96
2022-12-31T07:17:14.372Z,12.96
2022-12-31T07:18:14.364Z,12.95
2022-12-31T07:19:14.545Z,12.95
2022-12-31T07:20:14.335Z,12.95
2022-12-31T07:21:14.323Z,12.95
2022-12-31T07:22:14.304Z,12.95
2022-12-31T07:23:14.287Z,12.94
2022-12-31T07:24:14.268Z,12.94
2022-12-31T07:25:14.276Z,12.95
2022-12-31T07:26:14.243Z,12.95
2022-12-31T07:27:14.247Z,12.96
2022-12-31T07:28:14.212Z,12.97
2022-12-31T07:29:14.206Z,12.97
2022-12-31T07:30:14.188Z,12.98
2022-12-31T07:31:14.215Z,12.98
2022-12-31T07:32:14.158Z,12.98
2022-12-31T07:33:14.148Z,12.98
2022-12-31T07:34:14.126Z,12.97
2022-12-31T07:35:14.123Z,12.96
2022-12-31T07:36:14.098Z,12.96
2022-12-31T07:37:14.098Z,12.95
2022-12-31T07:38:14.071Z,12.94
2022-12-31T07:39:14.065Z,12.92
2022-12-31T07:40:14.044Z,12.90
2022-12-31T07:41:14.039Z,12.89
2022-12-31T07:42:14.018Z,12.87
2022-12-31T07:43:14.014Z,12.84
2022-12-31T07:44:13.995Z,12.82
2022-12-31T07:45:13.975Z,12.79
2022-12-31T07:46:14.062Z,12.77
2022-12-31T07:47:13.974Z,12.74
2022-12-31T07:48:13.934Z,12.71
2022-12-31T07:49:13.931Z,12.68
2022-12-31T07:50:13.911Z,12.65
2022-12-31T07:51:13.906Z,12.63
2022-12-31T07:52:13.879Z,12.60
2022-12-31T07:53:13.861Z,12.57
2022-12-31T07:54:14.540Z,12.55
2022-12-31T07:55:13.835Z,12.53
2022-12-31T07:56:13.841Z,12.51
2022-12-31T07:57:13.816Z,12.49
2022-12-31T07:58:13.789Z,12.47
2022-12-31T07:59:13.796Z,12.45
2022-12-31T08:00:13.783Z,12.42
2022-12-31T08:01:13.894Z,12.40
2022-12-31T08:02:14.056Z,12.39
2022-12-31T08:03:13.748Z,12.37
2022-12-31T08:04:13.710Z,12.36
2022-12-31T08:05:13.705Z,12.35
2022-12-31T08:06:13.697Z,12.34
2022-12-31T08:07:13.691Z,12.33
2022-12-31T08:08:13.669Z,12.33
2022-12-31T08:09:13.646Z,12.32
2022-12-31T08:10:17.691Z,12.32
2022-12-31T08:11:13.622Z,12.31
2022-12-31T08:12:13.595Z,12.31
2022-12-31T08:13:13.599Z,12.31
2022-12-31T08:14:13.579Z,12.30
2022-12-31T08:15:13.856Z,12.30
2022-12-31T08:16:13.621Z,12.29
2022-12-31T08:17:13.536Z,12.29
2022-12-31T08:18:13.514Z,12.28
2022-12-31T08:19:13.519Z,12.28
2022-12-31T08:20:13.510Z,12.28
2022-12-31T08:21:13.490Z,12.28
2022-12-31T08:22:13.462Z,12.28
2022-12-31T08:23:13.464Z,12.28
2022-12-31T08:24:13.458Z,12.28
2022-12-31T08:25:13.420Z,12.28
2022-12-31T08:26:13.433Z,12.29
2022-12-31T08:27:13.394Z,12.29
2022-12-31T08:28:13.377Z,12.29
2022-12-31T08:29:13.377Z,12.29
2022-12-31T08:30:13.359Z,12.29
2022-12-31T08:31:13.371Z,12.29
2022-12-31T08:32:13.323Z,12.30
2022-12-31T08:33:13.336Z,12.30
2022-12-31T08:34:13.321Z,12.30
2022-12-31T08:35:13.293Z,12.31
2022-12-31T08:36:13.271Z,12.31
2022-12-31T08:37:13.272Z,12.33
2022-12-31T08:38:13.249Z,12.34
2022-12-31T08:39:13.254Z,12.36
2022-12-31T08:40:13.229Z,12.37
2022-12-31T08:41:13.213Z,12.38
2022-12-31T08:42:13.189Z,12.40
2022-12-31T08:43:13.192Z,12.41
2022-12-31T08:44:13.173Z,12.42
2022-12-31T08:45:13.170Z,12.43
2022-12-31T08:46:13.269Z,12.45
2022-12-31T08:47:13.140Z,12.47
2022-12-31T08:48:13.121Z,12.48
2022-12-31T08:49:13.112Z,12.50
2022-12-31T08:50:13.111Z,12.51
2022-12-31T08:51:13.073Z,12.53
2022-12-31T08:52:13.057Z,12.55
2022-12-31T08:53:13.072Z,12.57
2022-12-31T08:54:13.034Z,12.60
2022-12-31T08:55:13.022Z,12.64
2022-12-31T08:56:13.005Z,12.67
2022-12-31T08:57:13.017Z,12.70
2022-12-31T08:58:12.985Z,12.73
2022-12-31T08:59:12.979Z,12.76
2022-12-31T09:00:12.971Z,12.80
2022-12-31T09:01:13.042Z,12.83
2022-12-31T09:02:12.990Z,12.87
2022-12-31T09:03:12.907Z,12.91
2022-12-31T09:04:12.938Z,12.96
2022-12-31T09:05:12.890Z,13.01
2022-12-31T09:06:12.876Z,13.07
2022-12-31T09:07:12.871Z,13.12
2022-12-31T09:08:12.848Z,13.17
2022-12-31T09:09:12.837Z,13.22
2022-12-31T09:10:12.831Z,13.26
2022-12-31T09:11:16.365Z,13.29
2022-12-31T09:12:12.805Z,13.32
2022-12-31T09:13:12.772Z,13.36
2022-12-31T09:14:12.780Z,13.39
2022-12-31T09:15:12.769Z,13.43
2022-12-31T09:16:12.791Z,13.46
2022-12-31T09:17:12.726Z,13.50
2022-12-31T09:18:12.712Z,13.54
2022-12-31T09:19:12.704Z,13.57
2022-12-31T09:20:12.681Z,13.60
2022-12-31T09:21:12.681Z,13.62
2022-12-31T09:22:12.645Z,13.65
2022-12-31T09:23:12.754Z,13.67
2022-12-31T09:24:12.624Z,13.69
2022-12-31T09:25:12.608Z,13.71
2022-12-31T09:26:12.598Z,13.74
2022-12-31T09:27:12.590Z,13.77
2022-12-31T09:28:12.574Z,13.81
2022-12-31T09:29:12.566Z,13.84
2022-12-31T09:30:12.557Z,13.87
2022-12-31T09:31:12.545Z,13.90
2022-12-31T09:32:12.523Z,13.93
2022-12-31T09:33:12.516Z,13.96
2022-12-31T09:34:12.497Z,13.99
2022-12-31T09:35:12.487Z,14.01
2022-12-31T09:36:12.471Z,14.03
2022-12-31T09:37:12.452Z,14.06
2022-12-31T09:38:12.437Z,14.07
2022-12-31T09:39:12.430Z,14.09
2022-12-31T09:40:12.413Z,14.10
2022-12-31T09:41:12.424Z,14.11
2022-12-31T09:42:12.384Z,14.12
2022-12-31T09:43:12.366Z,14.12
2022-12-31T09:44:12.357Z,14.13
2022-12-31T09:45:12.357Z,14.14
2022-12-31T09:46:12.349Z,14.16
2022-12-31T09:47:12.328Z,14.17
2022-12-31T09:48:12.307Z,14.17
2022-12-31T09:49:12.293Z,14.18
2022-12-31T09:50:12.283Z,14.19
2022-12-31T09:51:12.257Z,14.19
2022-12-31T09:52:12.240Z,14.21
2022-12-31T09:53:12.246Z,14.22
2022-12-31T09:54:12.229Z,14.24
2022-12-31T09:55:12.200Z,14.26
2022-12-31T09:56:12.199Z,14.30
2022-12-31T09:57:12.178Z,14.35
2022-12-31T09:58:12.178Z,14.38
2022-12-31T09:59:12.153Z,14.42
2022-12-31T10:00:12.146Z,14.46
2022-12-31T10:01:12.250Z,14.50
2022-12-31T10:02:12.405Z,14.55
2022-12-31T10:03:12.131Z,14.59
2022-12-31T10:04:12.092Z,14.63
2022-12-31T10:05:12.078Z,14.66
2022-12-31T10:06:12.074Z,14.69
2022-12-31T10:07:12.052Z,14.72
2022-12-31T10:08:12.036Z,14.76
2022-12-31T10:09:12.030Z,14.80
2022-12-31T10:10:12.033Z,14.83
2022-12-31T10:11:11.988Z,14.87
2022-12-31T10:12:11.988Z,14.91
2022-12-31T10:13:11.964Z,14.96
2022-12-31T10:14:11.958Z,15.00
2022-12-31T10:15:11.933Z,15.04
2022-12-31T10:16:11.948Z,15.07
2022-12-31T10:17:11.952Z,15.10
2022-12-31T10:18:11.910Z,15.13
2022-12-31T10:19:11.893Z,15.14
2022-12-31T10:20:11.881Z,15.15
2022-12-31T10:21:11.877Z,15.16
2022-12-31T10:22:11.861Z,15.18
2022-12-31T10:23:11.838Z,15.20
2022-12-31T10:24:11.837Z,15.22
2022-12-31T10:25:11.810Z,15.23
2022-12-31T10:26:11.807Z,15.26
2022-12-31T10:27:11.785Z,15.29
2022-12-31T10:28:11.776Z,15.33
2022-12-31T10:29:11.755Z,15.38
2022-12-31T10:30:11.762Z,15.43
2022-12-31T10:31:11.826Z,15.46
2022-12-31T10:32:11.731Z,15.50
2022-12-31T10:33:11.724Z,15.54
2022-12-31T10:34:11.698Z,15.59
2022-12-31T10:35:11.674Z,15.65
2022-12-31T10:36:11.664Z,15.70
2022-12-31T10:37:11.656Z,15.73
2022-12-31T10:38:11.641Z,15.75
2022-12-31T10:39:16.348Z,15.75
2022-12-31T10:40:11.637Z,15.76
2022-12-31T10:41:11.610Z,15.76
2022-12-31T10:42:11.598Z,15.76
2022-12-31T10:43:11.571Z,15.76
2022-12-31T10:44:11.559Z,15.74
2022-12-31T10:45:11.550Z,15.72
2022-12-31T10:46:11.609Z,15.70
2022-12-31T10:47:11.522Z,15.68
2022-12-31T10:48:11.532Z,15.66
2022-12-31T10:49:11.496Z,15.64
2022-12-31T10:50:11.483Z,15.62
2022-12-31T10:51:11.499Z,15.62
2022-12-31T10:52:11.495Z,15.63
2022-12-31T10:53:11.440Z,15.65
2022-12-31T10:54:11.436Z,15.67
2022-12-31T10:55:11.420Z,15.69
2022-12-31T10:56:11.402Z,15.70
2022-12-31T10:57:11.391Z,15.72
2022-12-31T10:58:11.393Z,15.73
2022-12-31T10:59:11.373Z,15.75
2022-12-31T11:00:11.359Z,15.77
2022-12-31T11:01:11.472Z,15.80
2022-12-31T11:02:11.604Z,15.83
2022-12-31T11:03:11.362Z,15.85
2022-12-31T11:04:11.299Z,15.87
2022-12-31T11:05:11.302Z,15.88
2022-12-31T11:06:11.277Z,15.87
2022-12-31T11:07:11.301Z,15.85
2022-12-31T11:08:11.244Z,15.83
2022-12-31T11:09:11.227Z,15.81
2022-12-31T11:10:11.218Z,15.78
2022-12-31T11:11:11.209Z,15.75
2022-12-31T11:12:11.196Z,15.72
2022-12-31T11:13:11.188Z,15.71
2022-12-31T11:14:11.183Z,15.72
2022-12-31T11:15:11.166Z,15.73
2022-12-31T11:16:11.316Z,15.74
2022-12-31T11:17:11.136Z,15.75
2022-12-31T11:18:11.134Z,15.77
2022-12-31T11:19:11.103Z,15.79
2022-12-31T11:20:11.099Z,15.83
2022-12-31T11:21:11.095Z,15.86
2022-12-31T11:22:11.058Z,15.87
2022-12-31T11:23:11.044Z,15.88
2022-12-31T11:24:11.043Z,15.87
2022-12-31T11:25:11.019Z,15.88
2022-12-31T11:26:11.022Z,15.90
2022-12-31T11:27:11.002Z,15.93
2022-12-31T11:28:10.980Z,15.96
2022-12-31T11:29:10.967Z,16.00
2022-12-31T11:30:10.967Z,16.03
2022-12-31T11:31:11.039Z,16.05
2022-12-31T11:32:10.944Z,16.07
2022-12-31T11:33:10.921Z,16.08
2022-12-31T11:34:10.915Z,16.08
2022-12-31T11:35:10.900Z,16.07
2022-12-31T11:36:10.885Z,16.06
2022-12-31T11:37:10.893Z,16.05
2022-12-31T11:38:10.878Z,16.06
2022-12-31T11:39:10.845Z,16.08
2022-12-31T11:40:10.827Z,16.11
2022-12-31T11:41:10.819Z,16.14
2022-12-31T11:42:11.118Z,16.16
2022-12-31T11:43:10.796Z,16.18
2022-12-31T11:44:10.782Z,16.20
2022-12-31T11:45:10.885Z,16.23
2022-12-31T11:46:11.045Z,16.26
2022-12-31T11:47:11.601Z,16.29
2022-12-31T11:49:10.761Z,16.34
2022-12-31T11:50:10.707Z,16.37
2022-12-31T11:51:10.696Z,16.41
2022-12-31T11:52:10.677Z,16.45
2022-12-31T11:53:10.668Z,16.52
2022-12-31T11:54:10.659Z,16.59
2022-12-31T11:55:10.642Z,16.65
2022-12-31T11:56:10.633Z,16.71
2022-12-31T11:57:10.603Z,16.78
2022-12-31T11:58:10.592Z,16.84
2022-12-31T11:59:15.739Z,16.90
2022-12-31T12:00:10.579Z,16.95
2022-12-31T12:01:10.667Z,17.01
2022-12-31T12:02:10.541Z,17.06
2022-12-31T12:03:10.629Z,17.10
2022-12-31T12:04:10.588Z,17.16
2022-12-31T12:05:11.365Z,17.21
2022-12-31T12:06:10.512Z,17.26
2022-12-31T12:07:10.478Z,17.30
2022-12-31T12:08:10.463Z,17.35
2022-12-31T12:09:10.481Z,17.39
2022-12-31T12:10:10.465Z,17.46
2022-12-31T12:11:10.445Z,17.56
2022-12-31T12:12:10.424Z,17.66
2022-12-31T12:13:10.391Z,17.75
2022-12-31T12:14:10.387Z,17.83
2022-12-31T12:15:10.371Z,17.92
2022-12-31T12:16:10.401Z,18.00
2022-12-31T12:17:10.350Z,18.06
2022-12-31T12:18:10.340Z,18.12
2022-12-31T12:19:10.340Z,18.16
2022-12-31T12:20:10.302Z,18.20
2022-12-31T12:21:10.325Z,18.23
2022-12-31T12:22:10.306Z,18.26
2022-12-31T12:23:10.267Z,18.29
2022-12-31T12:24:10.277Z,18.32
2022-12-31T12:25:10.282Z,18.36
2022-12-31T12:26:10.241Z,18.39
2022-12-31T12:27:10.213Z,18.42
2022-12-31T12:28:10.211Z,18.45
2022-12-31T12:29:10.218Z,18.47
2022-12-31T12:30:10.187Z,18.50
2022-12-31T12:31:10.213Z,18.52
2022-12-31T12:32:10.164Z,18.56
2022-12-31T12:33:10.152Z,18.59
2022-12-31T12:34:10.148Z,18.63
2022-12-31T12:35:10.119Z,18.67
2022-12-31T12:36:10.122Z,18.73
2022-12-31T12:37:10.089Z,18.78
2022-12-31T12:38:10.087Z,18.83
2022-12-31T12:39:10.065Z,18.84
2022-12-31T12:40:10.077Z,18.83
2022-12-31T12:41:10.051Z,18.82
2022-12-31T12:42:10.165Z,18.79
2022-12-31T12:43:10.047Z,18.77
2022-12-31T12:44:09.998Z,18.75
2022-12-31T12:45:09.990Z,18.73
2022-12-31T12:46:09.997Z,18.71
2022-12-31T12:47:10.028Z,18.69
2022-12-31T12:48:09.952Z,18.67
2022-12-31T12:49:09.951Z,18.66
2022-12-31T12:50:09.930Z,18.67
2022-12-31T12:51:09.909Z,18.69
2022-12-31T12:52:09.896Z,18.69
2022-12-31T12:53:09.880Z,18.69
2022-12-31T12:54:09.886Z,18.69